This is the latest recevied weather packets stored in our database for station/object WMKL. If no packets are shown the sender has not sent any weather packets the latest 10 day(s).
| Time | Temp. | Humidity | Pressure | Rain* | Wind** | Luminosity | Snow |
|---|---|---|---|---|---|---|---|
| 1788138933 | 84° F | 74% | 758.3 mmHg | - | - | - | - |
| 1788135307 | 80° F | 83% | 758.3 mmHg | - | - | - | - |
| 1788131707 | 78° F | 88% | 757.6 mmHg | - | - | - | - |
| 1788128108 | 78° F | 88% | 757.6 mmHg | - | - | - | - |
| 1788124513 | 78° F | 88% | 757.6 mmHg | - | - | - | - |
| 1788120927 | 78° F | 88% | 757.6 mmHg | - | - | - | - |
| 1788117307 | 78° F | 88% | 757.6 mmHg | - | - | - | - |
| 1788113706 | 78° F | 88% | 758.3 mmHg | - | - | - | - |
| 1788110113 | 80° F | 83% | 758.3 mmHg | - | - | - | - |
| 1788106526 | 80° F | 83% | 758.3 mmHg | - | - | - | - |
| 1788102906 | 82° F | 83% | 758.3 mmHg | - | - | - | - |
| 1788099306 | 84° F | 79% | 758.3 mmHg | - | - | - | - |
| 1788095712 | 84° F | 79% | 757.6 mmHg | - | - | - | - |
| 1788092125 | 86° F | 74% | 756.8 mmHg | - | - | - | - |
| 1788088506 | 89° F | 62% | 756.1 mmHg | - | - | - | - |
| 1788084906 | 91° F | 55% | 756.1 mmHg | - | - | - | - |
| 1788081312 | 91° F | 59% | 756.8 mmHg | - | - | - | - |
| 1788077724 | 91° F | 62% | 756.8 mmHg | - | - | - | - |
| 1788074105 | 91° F | 59% | 757.6 mmHg | - | - | - | - |
| 1788070505 | 89° F | 66% | 757.6 mmHg | - | - | - | - |
| 1788066911 | 89° F | 66% | 758.3 mmHg | - | - | - | - |
| 1788063305 | 89° F | 66% | 758.3 mmHg | - | - | - | - |
| 1788059729 | 87° F | 70% | 759.1 mmHg | - | - | - | - |
| 1788056105 | 86° F | 84% | 759.1 mmHg | - | - | - | - |
| 1788052513 | 80° F | 88% | 758.3 mmHg | - | - | - | - |
* Rain since midnight (hover to see other rain measurements)
** Current wind speed in m/s (hover to see current wind gust speed)